createdAt,value
2018-05-05T00:00:26.901Z,3.60
2018-05-05T00:02:54.438Z,3.60
2018-05-05T00:05:22.009Z,3.50
2018-05-05T00:07:49.552Z,3.40
2018-05-05T00:10:17.121Z,3.40
2018-05-05T00:12:44.694Z,3.40
2018-05-05T00:15:12.233Z,3.30
2018-05-05T00:17:39.794Z,3.10
2018-05-05T00:20:08.108Z,3.20
2018-05-05T00:22:35.672Z,3.20
2018-05-05T00:25:03.224Z,3.20
2018-05-05T00:27:30.784Z,3.10
2018-05-05T00:29:59.094Z,3.20
2018-05-05T00:32:26.660Z,3.20
2018-05-05T00:34:54.971Z,3.20
2018-05-05T00:37:22.540Z,3.20
2018-05-05T00:39:50.084Z,3.20
2018-05-05T00:42:18.420Z,2.90
2018-05-05T00:44:45.968Z,2.90
2018-05-05T00:47:13.533Z,2.80
2018-05-05T00:49:41.089Z,2.90
2018-05-05T00:52:09.470Z,2.90
2018-05-05T00:54:48.839Z,3.00
2018-05-05T00:57:16.410Z,3.00
2018-05-05T00:59:43.950Z,2.90
2018-05-05T01:02:11.515Z,2.90
2018-05-05T01:04:39.055Z,2.80
2018-05-05T01:07:06.623Z,2.70
2018-05-05T01:09:34.181Z,2.80
2018-05-05T01:12:01.752Z,2.80
2018-05-05T01:14:29.300Z,2.70
2018-05-05T01:16:57.999Z,2.60
2018-05-05T01:19:26.316Z,2.60
2018-05-05T01:21:53.884Z,2.60
2018-05-05T01:24:21.433Z,2.60
2018-05-05T01:26:49.003Z,2.60
2018-05-05T01:29:17.316Z,2.50
2018-05-05T01:31:44.920Z,2.50
2018-05-05T01:34:12.459Z,2.40
2018-05-05T01:36:40.006Z,2.40
2018-05-05T01:39:07.591Z,2.30
2018-05-05T01:41:35.137Z,2.30
2018-05-05T01:44:03.467Z,2.30
2018-05-05T01:46:31.012Z,2.20
2018-05-05T01:48:58.587Z,2.20
2018-05-05T01:51:26.896Z,2.20
2018-05-05T01:53:54.466Z,2.20
2018-05-05T01:56:22.015Z,2.20
2018-05-05T01:58:50.351Z,1.90
2018-05-05T02:01:17.895Z,1.90
2018-05-05T02:03:45.461Z,1.90
2018-05-05T02:06:13.011Z,1.80
2018-05-05T02:08:41.348Z,1.80
2018-05-05T02:11:08.892Z,1.80
2018-05-05T02:13:36.455Z,2.00
2018-05-05T02:16:04.004Z,2.00
2018-05-05T02:18:33.507Z,2.00
2018-05-05T02:21:01.052Z,2.00
2018-05-05T02:23:28.615Z,2.00
2018-05-05T02:25:56.185Z,2.00
2018-05-05T02:28:23.796Z,2.00
2018-05-05T02:30:51.350Z,2.00
2018-05-05T02:33:18.918Z,2.00
2018-05-05T02:35:46.476Z,1.90
2018-05-05T02:38:14.043Z,1.90
2018-05-05T02:40:41.623Z,1.90
2018-05-05T02:43:09.195Z,1.90
2018-05-05T02:45:36.746Z,1.90
2018-05-05T02:48:04.317Z,1.90
2018-05-05T02:50:31.859Z,1.90
2018-05-05T02:53:00.169Z,1.90
2018-05-05T02:55:27.759Z,1.80
2018-05-05T02:57:55.350Z,1.80
2018-05-05T03:00:22.916Z,1.80
2018-05-05T03:02:50.478Z,1.90
2018-05-05T03:05:18.051Z,2.00
2018-05-05T03:07:45.605Z,2.10
2018-05-05T03:10:13.933Z,2.20
2018-05-05T03:12:41.481Z,2.20
2018-05-05T03:15:09.055Z,2.20
2018-05-05T03:17:36.604Z,2.10
2018-05-05T03:20:04.940Z,2.00
2018-05-05T03:22:33.635Z,2.00
2018-05-05T03:25:01.195Z,1.90
2018-05-05T03:27:28.739Z,1.90
2018-05-05T03:29:57.067Z,2.00
2018-05-05T03:32:24.616Z,2.00
2018-05-05T03:34:52.191Z,2.00
2018-05-05T03:37:19.735Z,2.00
2018-05-05T03:39:48.084Z,2.10
2018-05-05T03:42:16.453Z,2.10
2018-05-05T03:44:44.028Z,2.20
2018-05-05T03:47:11.581Z,2.30
2018-05-05T03:49:39.151Z,2.40
2018-05-05T03:52:06.724Z,2.50
2018-05-05T03:54:34.287Z,2.90
2018-05-05T03:57:01.892Z,3.40
2018-05-05T03:59:41.323Z,4.00
2018-05-05T04:02:20.603Z,4.50
2018-05-05T04:08:08.667Z,5.50
2018-05-05T04:10:36.235Z,5.90
2018-05-05T04:13:03.783Z,6.20
2018-05-05T04:15:32.120Z,6.40
2018-05-05T04:18:03.994Z,6.40
2018-05-05T04:20:31.565Z,6.70
2018-05-05T04:22:59.135Z,7.20
2018-05-05T04:25:26.696Z,7.70
2018-05-05T04:27:54.259Z,8.30
2018-05-05T04:30:21.804Z,8.90
2018-05-05T04:32:50.147Z,10.10
2018-05-05T04:35:17.699Z,10.00
2018-05-05T04:37:45.277Z,10.50
2018-05-05T04:40:12.828Z,10.80
2018-05-05T04:42:40.404Z,10.90
2018-05-05T04:45:07.958Z,11.10
2018-05-05T04:47:35.532Z,11.30
2018-05-05T04:50:03.088Z,11.70
2018-05-05T04:52:31.435Z,12.60
2018-05-05T04:54:58.991Z,12.60
2018-05-05T04:57:26.563Z,12.90
2018-05-05T04:59:54.121Z,13.10
2018-05-05T05:02:21.688Z,13.10
2018-05-05T05:04:49.236Z,13.00
2018-05-05T05:07:17.570Z,13.40
2018-05-05T05:09:45.129Z,13.40
2018-05-05T05:12:12.696Z,13.70
2018-05-05T05:14:40.244Z,13.80
2018-05-05T05:17:08.585Z,13.90
2018-05-05T05:19:37.428Z,13.90
2018-05-05T05:22:05.077Z,14.00
2018-05-05T05:24:33.421Z,14.20
2018-05-05T05:27:00.975Z,14.20
2018-05-05T05:29:28.556Z,14.20
2018-05-05T05:31:56.117Z,14.30
2018-05-05T05:34:23.707Z,14.20
2018-05-05T05:36:51.260Z,14.00
2018-05-05T05:39:19.607Z,13.90
2018-05-05T05:41:47.963Z,13.80
2018-05-05T05:44:15.547Z,13.80
2018-05-05T05:46:43.158Z,13.90
2018-05-05T05:49:10.712Z,13.80
2018-05-05T05:51:38.269Z,13.70
2018-05-05T05:54:05.872Z,13.60
2018-05-05T05:56:33.436Z,13.70
2018-05-05T05:59:01.024Z,13.70
2018-05-05T06:01:28.583Z,13.50
2018-05-05T06:03:56.174Z,13.30
2018-05-05T06:06:24.499Z,12.90
2018-05-05T06:08:52.092Z,12.90
2018-05-05T06:11:19.657Z,12.80
2018-05-05T06:13:47.277Z,12.80
2018-05-05T06:16:14.833Z,12.70
2018-05-05T06:18:42.442Z,12.70
2018-05-05T06:21:10.014Z,12.80
2018-05-05T06:23:37.606Z,12.80
2018-05-05T06:26:05.928Z,13.20
2018-05-05T06:28:33.510Z,13.20
2018-05-05T06:31:01.065Z,13.20
2018-05-05T06:33:29.384Z,13.40
2018-05-05T06:35:56.975Z,13.40
2018-05-05T06:38:24.528Z,13.50
2018-05-05T06:40:52.101Z,13.70
2018-05-05T06:43:19.692Z,13.70
2018-05-05T06:45:47.279Z,13.90
2018-05-05T06:48:14.849Z,14.20
2018-05-05T06:50:42.477Z,14.20
2018-05-05T06:53:10.139Z,14.20
2018-05-05T06:55:37.723Z,14.40
2018-05-05T06:58:05.276Z,14.50
2018-05-05T07:00:33.823Z,14.90
2018-05-05T07:03:02.202Z,14.90
2018-05-05T07:05:29.808Z,14.80
2018-05-05T07:07:57.435Z,15.00
2018-05-05T07:10:24.987Z,15.00
2018-05-05T07:12:52.572Z,15.10
2018-05-05T07:15:20.156Z,15.20
2018-05-05T07:17:47.731Z,15.20
2018-05-05T07:20:15.303Z,15.20
2018-05-05T07:22:42.948Z,15.30
2018-05-05T07:25:11.258Z,15.50
2018-05-05T07:27:38.827Z,15.50
2018-05-05T07:30:06.380Z,15.60
2018-05-05T07:32:33.983Z,15.80
2018-05-05T07:35:01.536Z,15.90
2018-05-05T07:37:29.112Z,15.80
2018-05-05T07:39:56.669Z,15.80
2018-05-05T07:42:24.248Z,15.70
2018-05-05T07:44:51.797Z,15.60
2018-05-05T07:47:19.390Z,15.50
2018-05-05T07:49:46.938Z,15.70
2018-05-05T07:52:15.320Z,16.40
2018-05-05T07:54:43.631Z,16.70
2018-05-05T07:57:11.183Z,16.60
2018-05-05T07:59:39.547Z,16.90
2018-05-05T08:02:07.101Z,16.90
2018-05-05T08:04:34.675Z,17.10
2018-05-05T08:07:02.221Z,17.20
2018-05-05T08:09:30.024Z,17.50
2018-05-05T08:11:57.722Z,17.40
2018-05-05T08:14:26.208Z,17.50
2018-05-05T08:16:54.706Z,17.60
2018-05-05T08:19:22.284Z,17.60
2018-05-05T08:21:49.829Z,17.70
2018-05-05T08:24:17.409Z,17.70
2018-05-05T08:26:45.344Z,17.60
2018-05-05T08:29:13.807Z,17.80
2018-05-05T08:31:41.448Z,17.80
2018-05-05T08:34:09.328Z,17.80
2018-05-05T08:36:36.964Z,18.00
2018-05-05T08:39:04.560Z,18.20
2018-05-05T08:41:32.309Z,18.40
2018-05-05T08:43:59.924Z,18.60
2018-05-05T08:46:27.505Z,18.60
2018-05-05T08:48:55.088Z,18.70
2018-05-05T08:51:22.636Z,18.90
2018-05-05T08:53:50.188Z,19.10
2018-05-05T08:56:17.759Z,19.20
2018-05-05T08:58:45.309Z,19.40
2018-05-05T09:01:12.883Z,19.50
2018-05-05T09:03:40.439Z,19.80
2018-05-05T09:06:08.972Z,20.00
2018-05-05T09:08:36.687Z,20.00
2018-05-05T09:11:05.472Z,19.60
2018-05-05T09:13:33.056Z,19.60
2018-05-05T09:16:00.631Z,19.30
2018-05-05T09:18:28.180Z,18.90
2018-05-05T09:20:55.757Z,18.60
2018-05-05T09:23:23.311Z,18.40
2018-05-05T09:25:50.881Z,18.20
2018-05-05T09:28:18.458Z,18.10
2018-05-05T09:30:46.052Z,18.10
2018-05-05T09:33:13.604Z,18.00
2018-05-05T09:35:41.173Z,17.60
2018-05-05T09:38:08.758Z,17.60
2018-05-05T09:40:36.309Z,17.90
2018-05-05T09:43:03.931Z,18.30
2018-05-05T09:45:31.454Z,18.30
2018-05-05T09:47:59.028Z,18.40
2018-05-05T09:50:26.581Z,18.30
2018-05-05T09:52:54.152Z,18.10
2018-05-05T09:55:21.744Z,18.00
2018-05-05T09:57:49.353Z,18.00
2018-05-05T10:00:16.909Z,17.90
2018-05-05T10:02:44.488Z,18.10
2018-05-05T10:05:12.045Z,18.30
2018-05-05T10:07:39.672Z,18.40
2018-05-05T10:10:07.222Z,18.60
2018-05-05T10:12:34.788Z,18.70
2018-05-05T10:15:02.336Z,18.80
2018-05-05T10:17:29.889Z,19.10
2018-05-05T10:19:57.591Z,19.30
2018-05-05T10:22:25.143Z,19.40
2018-05-05T10:24:52.710Z,19.30
2018-05-05T10:27:21.455Z,19.30
2018-05-05T10:29:49.936Z,19.30
2018-05-05T10:32:18.288Z,19.40
2018-05-05T10:34:45.859Z,19.40
2018-05-05T10:37:13.856Z,19.60
2018-05-05T10:39:41.445Z,19.80
2018-05-05T10:42:09.000Z,19.70
2018-05-05T10:44:36.637Z,19.60
2018-05-05T10:47:04.140Z,19.60
2018-05-05T10:49:31.709Z,19.50
2018-05-05T10:51:59.504Z,19.40
2018-05-05T10:54:27.100Z,19.40
2018-05-05T10:56:55.517Z,19.50
2018-05-05T10:59:23.005Z,19.60
2018-05-05T11:01:50.575Z,19.60
2018-05-05T11:04:18.125Z,19.70
2018-05-05T11:06:45.946Z,19.80
2018-05-05T11:09:14.268Z,20.20
2018-05-05T11:11:41.891Z,20.20
2018-05-05T11:14:09.440Z,20.30
2018-05-05T11:16:37.007Z,20.40
2018-05-05T11:19:05.488Z,20.40
2018-05-05T11:21:33.896Z,20.40
2018-05-05T11:24:01.478Z,20.40
2018-05-05T11:26:29.347Z,20.40
2018-05-05T11:28:56.895Z,20.40
2018-05-05T11:31:25.236Z,20.80
2018-05-05T11:33:52.787Z,20.80
2018-05-05T11:36:20.460Z,20.60
2018-05-05T11:38:48.039Z,20.50
2018-05-05T11:41:15.645Z,20.20
2018-05-05T11:43:43.205Z,20.10
2018-05-05T11:46:11.055Z,19.80
2018-05-05T11:48:38.680Z,19.50
2018-05-05T11:51:07.053Z,19.10
2018-05-05T11:53:34.624Z,19.10
2018-05-05T11:56:02.597Z,19.00
2018-05-05T11:58:30.661Z,18.90
2018-05-05T12:00:58.315Z,19.00
2018-05-05T12:03:26.703Z,18.90
2018-05-05T12:05:55.075Z,18.60
2018-05-05T12:08:22.681Z,18.60
2018-05-05T12:10:50.298Z,18.50
2018-05-05T12:13:17.919Z,18.60
2018-05-05T12:15:45.489Z,18.80
2018-05-05T12:18:13.080Z,19.20
2018-05-05T12:20:40.631Z,19.60
2018-05-05T12:23:08.227Z,20.00
2018-05-05T12:25:35.771Z,20.30
2018-05-05T12:28:04.177Z,20.80
2018-05-05T12:30:31.844Z,20.70
2018-05-05T12:32:59.409Z,20.70
2018-05-05T12:35:27.758Z,20.60
2018-05-05T12:37:55.318Z,20.60
2018-05-05T12:40:22.927Z,20.60
2018-05-05T12:42:51.259Z,20.60
2018-05-05T12:45:18.960Z,20.50
2018-05-05T12:47:46.547Z,20.60
2018-05-05T12:50:14.229Z,20.80
2018-05-05T12:52:41.777Z,20.90
2018-05-05T12:55:09.354Z,21.00
2018-05-05T12:57:36.931Z,21.10
2018-05-05T13:00:04.498Z,21.10
2018-05-05T13:02:32.072Z,21.20
2018-05-05T13:04:59.665Z,21.20
2018-05-05T13:07:27.251Z,21.20
2018-05-05T13:09:54.883Z,21.20
2018-05-05T13:12:22.541Z,21.40
2018-05-05T13:14:50.124Z,21.40
2018-05-05T13:17:18.447Z,21.60
2018-05-05T13:19:46.038Z,21.60
2018-05-05T13:22:14.364Z,21.00
2018-05-05T13:24:41.916Z,21.00
2018-05-05T13:27:09.511Z,21.00
2018-05-05T13:29:37.072Z,21.20
2018-05-05T13:32:04.651Z,21.40
2018-05-05T13:34:32.219Z,21.50
2018-05-05T13:36:59.825Z,21.40
2018-05-05T13:39:27.382Z,21.20
2018-05-05T13:41:55.780Z,21.00
2018-05-05T13:44:23.329Z,21.00
2018-05-05T13:46:50.900Z,21.10
2018-05-05T13:49:18.515Z,21.00
2018-05-05T13:51:46.127Z,21.10
2018-05-05T13:54:13.676Z,21.00
2018-05-05T13:56:41.305Z,21.00
2018-05-05T13:59:08.861Z,20.90
2018-05-05T14:01:36.447Z,20.70
2018-05-05T14:04:04.023Z,20.80
2018-05-05T14:06:32.436Z,20.80
2018-05-05T14:09:00.019Z,20.80
2018-05-05T14:11:28.345Z,20.70
2018-05-05T14:13:55.939Z,20.70
2018-05-05T14:16:23.492Z,20.90
2018-05-05T14:18:51.095Z,21.00
2018-05-05T14:21:18.670Z,21.00
2018-05-05T14:23:46.240Z,21.20
2018-05-05T14:26:13.791Z,21.40
2018-05-05T14:28:41.433Z,21.50
2018-05-05T14:31:09.010Z,21.50
2018-05-05T14:33:36.616Z,21.40
2018-05-05T14:36:04.167Z,21.40
2018-05-05T14:38:31.812Z,21.30
2018-05-05T14:41:00.143Z,21.40
2018-05-05T14:43:27.873Z,21.40
2018-05-05T14:45:55.342Z,21.40
2018-05-05T14:48:23.711Z,21.30
2018-05-05T14:50:51.288Z,21.30
2018-05-05T14:53:19.638Z,21.40
2018-05-05T14:55:47.227Z,21.40
2018-05-05T14:58:14.772Z,21.40
2018-05-05T15:00:42.440Z,21.50
2018-05-05T15:03:10.319Z,21.50
2018-05-05T15:05:38.004Z,21.50
2018-05-05T15:08:05.554Z,21.50
2018-05-05T15:10:33.192Z,21.40
2018-05-05T15:13:00.752Z,21.40
2018-05-05T15:15:28.384Z,21.30
2018-05-05T15:17:56.898Z,21.20
2018-05-05T15:20:24.790Z,22.70
2018-05-05T15:22:52.686Z,21.10
2018-05-05T15:25:21.268Z,21.10
2018-05-05T15:27:49.127Z,21.10
2018-05-05T15:30:16.947Z,21.20
2018-05-05T15:32:46.486Z,21.10
2018-05-05T15:35:14.235Z,21.10
2018-05-05T15:37:42.586Z,20.90
2018-05-05T15:40:10.165Z,20.90
2018-05-05T15:42:37.772Z,20.80
2018-05-05T15:45:05.356Z,20.60
2018-05-05T15:47:33.081Z,20.50
2018-05-05T15:50:00.696Z,20.50
2018-05-05T15:52:28.263Z,20.50
2018-05-05T15:54:55.844Z,20.50
2018-05-05T15:57:23.465Z,20.40
2018-05-05T15:59:51.097Z,20.20
2018-05-05T16:02:18.649Z,20.20
2018-05-05T16:04:46.264Z,20.00
2018-05-05T16:07:13.955Z,19.90
2018-05-05T16:09:41.565Z,19.80
2018-05-05T16:12:09.112Z,19.80
2018-05-05T16:14:36.680Z,19.70
2018-05-05T16:17:04.247Z,19.60
2018-05-05T16:19:31.823Z,19.60
2018-05-05T16:21:59.371Z,19.60
2018-05-05T16:24:26.950Z,19.50
2018-05-05T16:26:54.527Z,19.60
2018-05-05T16:29:22.199Z,19.70
2018-05-05T16:31:49.756Z,19.60
2018-05-05T16:34:17.308Z,19.50
2018-05-05T16:36:45.644Z,19.40
2018-05-05T16:39:13.205Z,19.40
2018-05-05T16:41:41.536Z,19.30
2018-05-05T16:44:09.087Z,19.30
2018-05-05T16:46:36.740Z,19.10
2018-05-05T16:49:05.444Z,18.80
2018-05-05T16:51:33.015Z,18.60
2018-05-05T16:54:00.571Z,18.50
2018-05-05T16:56:28.168Z,18.40
2018-05-05T16:58:57.384Z,18.10
2018-05-05T17:01:25.760Z,17.70
2018-05-05T17:03:53.308Z,17.70
2018-05-05T17:06:20.974Z,17.60
2018-05-05T17:08:48.592Z,17.50
2018-05-05T17:11:16.176Z,17.50
2018-05-05T17:13:44.159Z,17.50
2018-05-05T17:16:11.727Z,17.50
2018-05-05T17:18:39.275Z,17.50
2018-05-05T17:21:06.839Z,17.50
2018-05-05T17:23:34.394Z,17.40
2018-05-05T17:26:02.738Z,17.50
2018-05-05T17:28:30.298Z,17.50
2018-05-05T17:30:57.884Z,17.60
2018-05-05T17:33:25.428Z,17.60
2018-05-05T17:35:54.572Z,17.70
2018-05-05T17:38:22.124Z,17.80
2018-05-05T17:40:49.711Z,17.70
2018-05-05T17:43:17.256Z,17.80
2018-05-05T17:45:44.825Z,17.80
2018-05-05T17:48:12.480Z,17.80
2018-05-05T17:50:40.032Z,17.70
2018-05-05T17:53:08.381Z,17.70
2018-05-05T17:55:35.931Z,17.60
2018-05-05T17:58:03.500Z,17.70
2018-05-05T18:00:31.064Z,17.60
2018-05-05T18:02:58.639Z,17.60
2018-05-05T18:05:26.205Z,17.50
2018-05-05T18:07:53.771Z,17.40
2018-05-05T18:10:21.328Z,17.30
2018-05-05T18:12:49.660Z,16.80
2018-05-05T18:15:17.228Z,16.80
2018-05-05T18:17:45.645Z,16.40
2018-05-05T18:20:13.211Z,16.40
2018-05-05T18:22:40.803Z,16.20
2018-05-05T18:25:09.265Z,15.80
2018-05-05T18:27:37.269Z,15.70
2018-05-05T18:30:10.026Z,15.20
2018-05-05T18:32:40.025Z,14.90
2018-05-05T18:35:08.606Z,14.90
2018-05-05T18:37:36.939Z,14.40
2018-05-05T18:40:04.577Z,14.30
2018-05-05T18:42:32.916Z,13.90
2018-05-05T18:45:00.494Z,13.80
2018-05-05T18:47:29.848Z,13.70
2018-05-05T18:49:58.176Z,13.40
2018-05-05T18:52:26.371Z,13.40
2018-05-05T18:54:54.022Z,13.30
2018-05-05T18:57:22.366Z,13.20
2018-05-05T18:59:49.988Z,13.10
2018-05-05T19:02:17.596Z,13.00
2018-05-05T19:04:46.063Z,12.80
2018-05-05T19:07:13.651Z,12.70
2018-05-05T19:09:41.998Z,12.70
2018-05-05T19:12:10.320Z,12.50
2018-05-05T19:14:37.946Z,12.50
2018-05-05T19:17:06.277Z,12.30
2018-05-05T19:19:33.855Z,12.30
2018-05-05T19:22:01.405Z,12.30
2018-05-05T19:24:28.976Z,12.30
2018-05-05T19:26:57.407Z,12.20
2018-05-05T19:29:25.687Z,12.00
2018-05-05T19:31:53.248Z,12.00
2018-05-05T19:34:20.815Z,11.90
2018-05-05T19:36:48.382Z,11.90
2018-05-05T19:39:16.504Z,11.80
2018-05-05T19:41:44.052Z,11.80
2018-05-05T19:44:11.622Z,11.70
2018-05-05T19:46:39.222Z,11.60
2018-05-05T19:49:06.772Z,11.50
2018-05-05T19:51:39.969Z,11.50
2018-05-05T19:54:08.268Z,11.60
2018-05-05T19:56:35.831Z,11.50
2018-05-05T19:59:03.486Z,11.50
2018-05-05T20:01:36.037Z,11.40
2018-05-05T20:04:04.384Z,11.30
2018-05-05T20:06:31.929Z,11.30
2018-05-05T20:08:59.500Z,11.20
2018-05-05T20:11:27.263Z,11.10
2018-05-05T20:13:55.600Z,10.90
2018-05-05T20:16:23.151Z,10.90
2018-05-05T20:18:50.883Z,10.90
2018-05-05T20:21:19.518Z,10.80
2018-05-05T20:23:47.108Z,10.80
2018-05-05T20:26:14.665Z,10.80
2018-05-05T20:28:42.253Z,10.70
2018-05-05T20:31:09.811Z,10.70
2018-05-05T20:33:37.360Z,10.60
2018-05-05T20:36:05.706Z,10.20
2018-05-05T20:38:33.261Z,10.20
2018-05-05T20:41:00.907Z,10.00
2018-05-05T20:43:28.457Z,9.90
2018-05-05T20:45:56.871Z,9.70
2018-05-05T20:48:25.127Z,9.60
2018-05-05T20:50:52.787Z,9.60
2018-05-05T20:53:20.263Z,9.50
2018-05-05T20:55:48.801Z,9.40
2018-05-05T20:58:16.344Z,9.30
2018-05-05T21:00:45.628Z,9.10
2018-05-05T21:03:13.172Z,9.10
2018-05-05T21:05:40.755Z,9.10
2018-05-05T21:08:09.944Z,9.00
2018-05-05T21:10:37.517Z,8.90
2018-05-05T21:13:05.088Z,8.80
2018-05-05T21:15:32.672Z,8.80
2018-05-05T21:18:00.228Z,8.80
2018-05-05T21:20:28.769Z,8.80
2018-05-05T21:22:56.327Z,8.90
2018-05-05T21:25:23.891Z,9.00
2018-05-05T21:27:51.483Z,9.00
2018-05-05T21:30:19.028Z,9.00
2018-05-05T21:32:46.576Z,8.90
2018-05-05T21:35:14.161Z,9.00
2018-05-05T21:37:41.716Z,8.90
2018-05-05T21:40:09.312Z,9.00
2018-05-05T21:42:36.865Z,8.90
2018-05-05T21:45:04.432Z,8.90
2018-05-05T21:47:31.980Z,8.90
2018-05-05T21:50:00.319Z,8.90
2018-05-05T21:52:27.886Z,8.90
2018-05-05T21:54:58.088Z,8.90
2018-05-05T21:57:25.880Z,8.80
2018-05-05T21:59:53.428Z,8.80
2018-05-05T22:02:21.761Z,8.70
2018-05-05T22:04:49.312Z,8.70
2018-05-05T22:07:17.174Z,8.70
2018-05-05T22:09:46.212Z,8.70
2018-05-05T22:12:14.028Z,8.70
2018-05-05T22:14:41.854Z,8.60
2018-05-05T22:17:09.725Z,8.60
2018-05-05T22:19:37.981Z,8.50
2018-05-05T22:24:37.849Z,8.40
2018-05-05T22:27:06.676Z,8.30
2018-05-05T22:29:34.470Z,8.30
2018-05-05T22:32:03.189Z,8.20
2018-05-05T22:34:30.748Z,8.20
2018-05-05T22:36:58.320Z,8.10
2018-05-05T22:39:25.875Z,8.10
2018-05-05T22:41:53.452Z,8.10
2018-05-05T22:44:20.996Z,8.00
2018-05-05T22:46:49.332Z,8.00
2018-05-05T22:49:16.927Z,7.90
2018-05-05T22:51:44.500Z,7.90
2018-05-05T22:54:12.045Z,7.90
2018-05-05T22:56:39.623Z,7.80
2018-05-05T22:59:07.169Z,7.70
2018-05-05T23:01:34.732Z,7.70
2018-05-05T23:04:02.278Z,7.60
2018-05-05T23:06:30.624Z,7.60
2018-05-05T23:08:58.165Z,7.60
2018-05-05T23:11:26.635Z,7.60
2018-05-05T23:13:54.961Z,7.50
2018-05-05T23:16:22.510Z,7.50
2018-05-05T23:18:50.091Z,7.50
2018-05-05T23:21:17.637Z,7.60
2018-05-05T23:23:45.963Z,7.60
2018-05-05T23:26:14.336Z,7.60
2018-05-05T23:28:41.900Z,7.60
2018-05-05T23:31:09.453Z,7.50
2018-05-05T23:33:37.788Z,7.40
2018-05-05T23:36:05.382Z,7.30
2018-05-05T23:38:32.932Z,7.30
2018-05-05T23:41:01.477Z,7.30
2018-05-05T23:43:29.039Z,7.30
2018-05-05T23:45:57.913Z,7.30
2018-05-05T23:48:25.496Z,7.20
2018-05-05T23:50:53.042Z,7.20
2018-05-05T23:53:20.706Z,7.20
2018-05-05T23:55:48.256Z,7.20
2018-05-05T23:58:16.584Z,7.20
